Аэропорт: Иркутск. Иркутск

ICAO: UIII

METAR:
2022-01-28 08:30:00
UIII 280830Z 00000MPS CAVOK M12/M18 Q1031 R12/810550 NOSIG RMK QFE730/0974
METAR:
2022-01-28 05:00:00
TAF UIII 280500Z 2806/2906 VRB01MPS 9999 NSC TEMPO 2808/2815 2000 BR FU